createdAt,value
2019-05-28T12:23:12.097Z,83.77
2019-05-28T12:25:41.360Z,80.21
2019-05-28T12:28:10.107Z,82.46
2019-05-28T12:30:38.863Z,79.69
2019-05-28T12:33:07.590Z,82.74
2019-05-28T12:35:42.280Z,87.50
2019-05-28T12:38:07.676Z,85.38
2019-05-28T12:40:47.074Z,81.70
2019-05-28T12:43:06.952Z,81.68
2019-05-28T12:45:36.328Z,81.14
2019-05-28T12:48:12.319Z,75.23
2019-05-28T12:50:36.765Z,74.03
2019-05-28T12:53:05.556Z,76.55
2019-05-28T12:55:34.382Z,75.64
2019-05-28T12:58:03.120Z,79.18
2019-05-28T13:00:33.590Z,79.31
2019-05-28T13:03:02.363Z,78.42
2019-05-28T13:05:31.621Z,77.22
2019-05-28T13:08:09.900Z,81.48
2019-05-28T13:10:30.856Z,77.48
2019-05-28T13:12:59.664Z,80.08
2019-05-28T13:15:28.420Z,80.28
2019-05-28T13:17:57.345Z,81.29
2019-05-28T13:20:26.079Z,82.82
2019-05-28T13:22:54.829Z,80.18
2019-05-28T13:25:23.696Z,79.85
2019-05-28T13:27:52.433Z,81.70
2019-05-28T13:30:22.412Z,83.10
2019-05-28T13:32:51.328Z,81.92
2019-05-28T13:35:20.244Z,82.25
2019-05-28T13:37:49.001Z,79.59
2019-05-28T13:40:19.253Z,77.34
2019-05-28T13:42:48.019Z,79.13
2019-05-28T13:45:18.243Z,79.47
2019-05-28T13:47:46.970Z,78.12
2019-05-28T13:50:18.313Z,77.32
2019-05-28T13:52:47.164Z,79.56
2019-05-28T13:55:16.059Z,77.85
2019-05-28T13:57:44.961Z,75.13
2019-05-28T14:00:18.957Z,70.67
2019-05-28T14:02:47.720Z,71.73
2019-05-28T14:05:18.091Z,72.33
2019-05-28T14:07:47.006Z,73.02
2019-05-28T14:10:17.965Z,72.52
2019-05-28T14:12:46.768Z,69.47
2019-05-28T14:15:16.441Z,68.91
2019-05-28T14:17:45.299Z,68.68
2019-05-28T14:20:16.621Z,69.56
2019-05-28T14:25:15.123Z,70.28
2019-05-28T14:27:44.299Z,71.46
2019-05-28T14:30:16.125Z,71.18
2019-05-28T14:32:44.847Z,73.64
2019-05-28T14:35:13.583Z,75.29
2019-05-28T14:37:42.370Z,75.30
2019-05-28T14:40:12.635Z,76.65
2019-05-28T14:42:41.406Z,75.28
2019-05-28T14:45:10.469Z,76.07
2019-05-28T14:47:39.231Z,72.70
2019-05-28T14:50:09.410Z,70.38
2019-05-28T14:52:38.188Z,69.92
2019-05-28T14:55:09.452Z,69.29
2019-05-28T14:57:38.334Z,69.21
2019-05-28T15:00:18.660Z,68.16
2019-05-28T15:02:47.516Z,65.08
2019-05-28T15:05:16.458Z,65.31
2019-05-28T15:07:45.209Z,64.92
2019-05-28T15:10:16.907Z,64.59
2019-05-28T15:12:45.801Z,62.72
2019-05-28T15:15:34.082Z,61.05
2019-05-28T15:17:46.577Z,61.32
2019-05-28T15:20:16.399Z,61.30
2019-05-28T15:22:45.297Z,60.83
2019-05-28T15:25:14.190Z,60.79
2019-05-28T15:27:42.920Z,60.00
2019-05-28T15:30:14.894Z,61.98
2019-05-28T15:32:44.217Z,60.41
2019-05-28T15:35:13.775Z,58.91
2019-05-28T15:37:45.291Z,59.88
2019-05-28T15:40:17.683Z,58.93
2019-05-28T15:43:05.141Z,60.12
2019-05-28T15:45:20.668Z,59.97
2019-05-28T15:47:49.457Z,60.22
2019-05-28T15:50:18.531Z,61.74
2019-05-28T15:52:47.286Z,59.73
2019-05-28T15:55:16.141Z,60.46
2019-05-28T15:57:44.923Z,60.31
2019-05-28T16:00:16.593Z,59.74
2019-05-28T16:02:45.416Z,61.08
2019-05-28T16:05:15.924Z,61.17
2019-05-28T16:07:45.569Z,61.63
2019-05-28T16:10:14.411Z,60.63
2019-05-28T16:12:43.363Z,60.96
2019-05-28T16:15:13.036Z,59.44
2019-05-28T16:17:42.753Z,60.00
2019-05-28T16:20:12.818Z,59.64
2019-05-28T16:22:46.839Z,61.22
2019-05-28T16:25:20.280Z,59.73
2019-05-28T16:27:49.927Z,58.65
2019-05-28T16:30:21.808Z,59.84
2019-05-28T16:32:54.749Z,59.84
2019-05-28T16:35:23.583Z,59.38
2019-05-28T16:37:52.490Z,58.07
2019-05-28T16:40:21.230Z,57.16
2019-05-28T16:42:50.000Z,57.07
2019-05-28T16:45:19.384Z,56.26
2019-05-28T16:47:48.180Z,56.85
2019-05-28T16:50:16.932Z,56.68
2019-05-28T16:52:45.831Z,56.82
2019-05-28T16:55:16.560Z,56.62
2019-05-28T16:57:45.301Z,57.39
2019-05-28T17:00:16.977Z,58.93
2019-05-28T17:02:45.705Z,58.75
2019-05-28T17:05:14.523Z,58.79
2019-05-28T17:07:44.086Z,57.94
2019-05-28T17:10:30.939Z,58.29
2019-05-28T17:12:45.099Z,58.13
2019-05-28T17:15:15.713Z,58.16
2019-05-28T17:17:44.528Z,58.48
2019-05-28T17:20:14.835Z,58.64
2019-05-28T17:22:43.670Z,60.75
2019-05-28T17:25:13.905Z,60.15
2019-05-28T17:27:42.810Z,59.18
2019-05-28T17:30:19.181Z,59.60
2019-05-28T17:32:42.274Z,62.01
2019-05-28T17:35:11.796Z,60.84
2019-05-28T17:37:40.553Z,61.42
2019-05-28T17:40:09.412Z,61.26
2019-05-28T17:42:38.140Z,61.38
2019-05-28T17:45:07.990Z,60.50
2019-05-28T17:47:43.572Z,60.00
2019-05-28T17:50:07.983Z,61.26
2019-05-28T17:52:36.938Z,59.96
2019-05-28T17:55:07.247Z,59.01
2019-05-28T17:57:36.197Z,58.66
2019-05-28T18:00:06.739Z,58.89
2019-05-28T18:02:35.566Z,58.54
2019-05-28T18:05:06.493Z,59.62
2019-05-28T18:07:35.355Z,59.87
2019-05-28T18:10:10.981Z,60.33
2019-05-28T18:12:39.841Z,60.53
2019-05-28T18:15:10.297Z,60.09
2019-05-28T18:17:39.061Z,59.77
2019-05-28T18:20:14.769Z,60.43
2019-05-28T18:22:41.712Z,59.90
2019-05-28T18:25:10.496Z,60.78
2019-05-28T18:27:39.244Z,59.53
2019-05-28T18:30:09.905Z,59.68
2019-05-28T18:32:39.182Z,60.43
2019-05-28T18:35:08.982Z,61.88
2019-05-28T18:37:37.905Z,61.20
2019-05-28T18:40:09.304Z,61.18
2019-05-28T18:42:38.146Z,60.33
2019-05-28T18:45:09.567Z,60.60
2019-05-28T18:47:39.116Z,60.85
2019-05-28T18:50:10.145Z,61.88
2019-05-28T18:52:38.917Z,61.12
2019-05-28T18:55:10.003Z,62.76
2019-05-28T18:57:39.089Z,62.62
2019-05-28T19:00:10.136Z,63.16
2019-05-28T19:02:38.965Z,62.69
2019-05-28T19:05:09.336Z,62.47
2019-05-28T19:07:38.234Z,62.76
2019-05-28T19:10:08.150Z,62.42
2019-05-28T19:12:37.016Z,62.51
2019-05-28T19:15:10.025Z,62.77
2019-05-28T19:17:38.757Z,64.20
2019-05-28T19:20:09.774Z,64.44
2019-05-28T19:22:38.557Z,65.02
2019-05-28T19:25:12.783Z,65.36
2019-05-28T19:27:41.534Z,65.52
2019-05-28T19:30:11.725Z,65.81
2019-05-28T19:32:40.606Z,66.76
2019-05-28T19:35:09.649Z,67.27
2019-05-28T19:37:38.520Z,67.53
2019-05-28T19:40:08.668Z,69.12
2019-05-28T19:42:37.470Z,69.85
2019-05-28T19:45:07.889Z,69.49
2019-05-28T19:47:36.669Z,69.59
2019-05-28T19:50:14.623Z,71.37
2019-05-28T19:52:43.371Z,71.44
2019-05-28T19:55:12.516Z,71.10
2019-05-28T19:57:41.335Z,72.28
2019-05-28T20:00:13.110Z,73.46
2019-05-28T20:02:41.906Z,73.16
2019-05-28T20:05:10.741Z,74.04
2019-05-28T20:07:39.557Z,73.86
2019-05-28T20:10:08.393Z,74.28
2019-05-28T20:12:37.124Z,74.78
2019-05-28T20:15:11.140Z,75.50
2019-05-28T20:17:40.018Z,75.36
2019-05-28T20:20:11.090Z,75.27
2019-05-28T20:22:39.817Z,76.09
2019-05-28T20:25:11.350Z,76.12
2019-05-28T20:27:40.167Z,76.19
2019-05-28T20:30:11.460Z,76.67
2019-05-28T20:32:40.444Z,76.90
2019-05-28T20:35:10.660Z,78.10
2019-05-28T20:37:39.595Z,78.10
2019-05-28T20:40:10.753Z,77.41
2019-05-28T20:42:39.471Z,77.31
2019-05-28T20:45:12.094Z,77.61
2019-05-28T20:47:41.513Z,77.50
2019-05-28T20:50:11.715Z,78.01
2019-05-28T20:52:40.815Z,77.64
2019-05-28T20:55:09.988Z,77.86
2019-05-28T20:57:38.714Z,77.94
2019-05-28T21:00:09.659Z,78.29
2019-05-28T21:02:38.420Z,78.58
2019-05-28T21:05:09.536Z,78.54
2019-05-28T21:07:39.715Z,78.78
2019-05-28T21:10:10.826Z,78.86
2019-05-28T21:12:44.459Z,78.67
2019-05-28T21:15:10.680Z,79.42
2019-05-28T21:17:40.688Z,79.47
2019-05-28T21:20:15.228Z,79.65
2019-05-28T21:22:44.058Z,79.10
2019-05-28T21:25:14.679Z,79.02
2019-05-28T21:27:44.764Z,78.69
2019-05-28T21:30:19.336Z,79.10
2019-05-28T21:32:53.200Z,78.99
2019-05-28T21:35:28.466Z,79.21
2019-05-28T21:38:03.807Z,78.72
2019-05-28T21:40:38.058Z,78.55
2019-05-28T21:43:12.197Z,79.54
2019-05-28T21:45:46.872Z,79.76
2019-05-28T21:48:20.376Z,79.76
2019-05-28T21:50:56.593Z,79.93
2019-05-28T21:53:30.890Z,80.22
2019-05-28T21:56:04.840Z,81.03
2019-05-28T21:58:40.856Z,80.96
2019-05-28T22:01:25.019Z,81.60
2019-05-28T22:04:00.068Z,82.08
2019-05-28T22:06:33.824Z,82.74
2019-05-28T22:09:08.392Z,83.59
2019-05-28T22:11:40.622Z,84.11
2019-05-28T22:14:10.077Z,84.17
2019-05-28T22:16:39.760Z,84.95
2019-05-28T22:19:13.322Z,84.50
2019-05-28T22:21:48.275Z,85.19
2019-05-28T22:24:23.288Z,85.52
2019-05-28T22:26:52.983Z,85.52
2019-05-28T22:29:22.556Z,85.42
2019-05-28T22:31:51.232Z,85.50
2019-05-28T22:34:20.083Z,86.23
2019-05-28T22:36:48.823Z,86.28
2019-05-28T22:39:17.555Z,86.75
2019-05-28T22:41:46.281Z,86.82
2019-05-28T22:44:14.985Z,87.11
2019-05-28T22:46:43.718Z,87.35
2019-05-28T22:49:13.243Z,87.41
2019-05-28T22:51:41.963Z,87.65
2019-05-28T22:54:10.692Z,88.25
2019-05-28T22:56:39.373Z,88.60
2019-05-28T22:59:08.585Z,88.44
2019-05-28T23:01:37.674Z,88.64
2019-05-28T23:04:07.103Z,88.92
2019-05-28T23:06:36.781Z,89.18
2019-05-28T23:09:07.745Z,89.70
2019-05-28T23:11:36.527Z,89.83
2019-05-28T23:14:06.092Z,89.74
2019-05-28T23:16:34.827Z,90.14
2019-05-28T23:19:04.456Z,90.45
2019-05-28T23:21:33.762Z,90.66
2019-05-28T23:24:03.169Z,91.14
2019-05-28T23:26:31.988Z,91.09
2019-05-28T23:29:01.619Z,90.78
2019-05-28T23:31:30.661Z,91.18
2019-05-28T23:33:59.410Z,91.64
2019-05-28T23:36:28.106Z,91.28
2019-05-28T23:38:56.936Z,91.37
2019-05-28T23:41:25.629Z,91.59
2019-05-28T23:44:01.928Z,91.91
2019-05-28T23:46:24.883Z,91.97
2019-05-28T23:48:53.579Z,92.02
2019-05-28T23:51:22.294Z,92.48
2019-05-28T23:53:51.035Z,92.84
2019-05-28T23:56:19.742Z,93.21
2019-05-28T23:58:48.428Z,93.29
